createdAt,value
2023-08-11T00:01:34.438Z,15.55
2023-08-11T00:06:35.729Z,15.58
2023-08-11T00:11:36.979Z,15.70
2023-08-11T00:16:38.350Z,15.68
2023-08-11T00:21:39.647Z,15.58
2023-08-11T00:26:41.083Z,15.40
2023-08-11T00:31:43.091Z,15.09
2023-08-11T00:36:44.520Z,15.17
2023-08-11T00:41:47.133Z,15.33
2023-08-11T00:46:48.973Z,15.33
2023-08-11T00:51:50.359Z,15.26
2023-08-11T00:56:51.910Z,15.23
2023-08-11T01:01:53.179Z,15.18
2023-08-11T01:06:54.530Z,15.05
2023-08-11T01:11:55.806Z,15.06
2023-08-11T01:16:57.082Z,15.12
2023-08-11T01:21:58.402Z,14.85
2023-08-11T01:26:59.848Z,14.97
2023-08-11T01:32:01.181Z,14.94
2023-08-11T01:37:02.518Z,15.00
2023-08-11T01:42:03.895Z,14.58
2023-08-11T01:47:05.760Z,14.89
2023-08-11T01:52:07.852Z,14.65
2023-08-11T01:57:09.272Z,14.76
2023-08-11T02:02:10.735Z,14.75
2023-08-11T02:07:12.000Z,14.64
2023-08-11T02:12:13.347Z,14.51
2023-08-11T02:17:14.756Z,14.47
2023-08-11T02:22:16.045Z,14.70
2023-08-11T02:27:18.437Z,14.50
2023-08-11T02:32:20.688Z,14.48
2023-08-11T02:37:21.972Z,14.36
2023-08-11T02:42:24.544Z,14.36
2023-08-11T02:47:25.912Z,14.45
2023-08-11T02:52:27.562Z,14.38
2023-08-11T02:57:28.821Z,14.39
2023-08-11T03:02:30.101Z,14.32
2023-08-11T03:07:32.354Z,14.19
2023-08-11T03:12:33.801Z,13.93
2023-08-11T03:17:36.582Z,14.02
2023-08-11T03:22:38.038Z,14.07
2023-08-11T03:27:40.941Z,13.87
2023-08-11T03:32:42.578Z,13.96
2023-08-11T03:37:44.086Z,13.96
2023-08-11T03:42:45.334Z,13.83
2023-08-11T03:47:46.596Z,13.93
2023-08-11T03:52:48.577Z,13.93
2023-08-11T03:57:49.803Z,13.98
2023-08-11T04:02:51.072Z,13.82
2023-08-11T04:07:52.425Z,13.88
2023-08-11T04:12:53.697Z,13.75
2023-08-11T04:17:55.079Z,13.82
2023-08-11T04:22:57.214Z,13.81
2023-08-11T04:28:00.005Z,13.61
2023-08-11T04:33:01.642Z,13.73
2023-08-11T04:38:03.288Z,13.89
2023-08-11T04:43:05.363Z,13.92
2023-08-11T04:48:06.709Z,14.00
2023-08-11T04:53:07.980Z,13.95
2023-08-11T04:58:10.367Z,14.09
2023-08-11T05:03:12.079Z,14.24
2023-08-11T05:08:13.459Z,14.24
2023-08-11T05:13:14.910Z,14.18
2023-08-11T05:18:16.174Z,14.12
2023-08-11T05:23:17.420Z,14.22
2023-08-11T05:28:18.663Z,14.28
2023-08-11T05:33:19.888Z,14.43
2023-08-11T05:38:21.132Z,14.65
2023-08-11T05:43:22.399Z,15.41
2023-08-11T05:48:23.714Z,15.85
2023-08-11T05:53:24.989Z,16.18
2023-08-11T05:58:26.270Z,16.42
2023-08-11T06:03:31.346Z,16.62
2023-08-11T06:08:32.634Z,16.84
2023-08-11T06:13:33.953Z,17.11
2023-08-11T06:18:35.283Z,17.32
2023-08-11T06:23:36.536Z,17.48
2023-08-11T06:28:37.761Z,17.65
2023-08-11T06:33:39.080Z,17.87
2023-08-11T06:38:40.533Z,17.95
2023-08-11T06:43:42.723Z,18.00
2023-08-11T06:48:44.039Z,17.80
2023-08-11T06:53:45.321Z,17.90
2023-08-11T06:58:46.805Z,17.61
2023-08-11T07:03:48.085Z,18.11
2023-08-11T07:08:49.338Z,18.36
2023-08-11T07:13:50.589Z,18.69
2023-08-11T07:18:51.859Z,18.63
2023-08-11T07:23:53.166Z,18.67
2023-08-11T07:28:54.384Z,18.95
2023-08-11T07:33:55.625Z,19.00
2023-08-11T07:39:09.043Z,19.55
2023-08-11T07:44:18.288Z,19.50
2023-08-11T07:49:19.660Z,19.24
2023-08-11T07:54:21.231Z,19.96
2023-08-11T07:59:22.620Z,20.28
2023-08-11T08:04:30.420Z,20.74
2023-08-11T08:09:35.018Z,21.01
2023-08-11T08:14:36.476Z,21.19
2023-08-11T08:19:37.862Z,21.37
2023-08-11T08:24:39.701Z,21.66
2023-08-11T08:29:41.009Z,21.83
2023-08-11T08:34:42.275Z,22.30
2023-08-11T08:39:44.581Z,22.10
2023-08-11T08:44:45.961Z,22.08
2023-08-11T08:49:50.269Z,22.52
2023-08-11T08:54:51.539Z,22.86
2023-08-11T08:59:52.874Z,23.23
2023-08-11T09:04:54.163Z,23.35
2023-08-11T09:09:55.480Z,23.64
2023-08-11T09:14:57.184Z,23.67
2023-08-11T09:19:59.116Z,23.70
2023-08-11T09:25:00.444Z,23.75
2023-08-11T09:30:01.709Z,24.20
2023-08-11T09:35:03.962Z,24.23
2023-08-11T09:40:06.101Z,24.38
2023-08-11T09:45:07.332Z,24.42
2023-08-11T09:50:11.732Z,24.43
2023-08-11T09:55:13.818Z,24.51
2023-08-11T10:00:15.360Z,24.77
2023-08-11T10:05:17.009Z,25.13
2023-08-11T10:10:18.325Z,25.41
2023-08-11T10:15:19.785Z,25.30
2023-08-11T10:20:21.776Z,25.34
2023-08-11T10:25:24.843Z,25.01
2023-08-11T10:30:26.062Z,25.73
2023-08-11T10:35:27.374Z,25.96
2023-08-11T10:40:28.682Z,26.25
2023-08-11T10:45:29.939Z,26.35
2023-08-11T10:50:31.250Z,26.41
2023-08-11T10:55:32.482Z,26.60
2023-08-11T11:00:34.149Z,26.68
2023-08-11T11:05:35.430Z,26.98
2023-08-11T11:10:49.232Z,26.68
2023-08-11T11:15:52.085Z,27.30
2023-08-11T11:20:53.380Z,27.42
2023-08-11T11:25:54.602Z,27.58
2023-08-11T11:30:55.835Z,27.67
2023-08-11T11:35:57.217Z,28.22
2023-08-11T11:40:58.454Z,28.03
2023-08-11T11:45:59.792Z,28.33
2023-08-11T11:51:04.262Z,28.34
2023-08-11T11:56:06.142Z,29.34
2023-08-11T12:01:07.356Z,28.78
2023-08-11T12:06:11.686Z,29.09
2023-08-11T12:11:12.981Z,29.34
2023-08-11T12:16:14.256Z,29.61
2023-08-11T12:21:15.531Z,29.67
2023-08-11T12:26:16.761Z,30.00
2023-08-11T12:31:18.019Z,30.10
2023-08-11T12:36:19.433Z,30.55
2023-08-11T12:41:21.258Z,30.02
2023-08-11T12:46:22.590Z,30.40
2023-08-11T12:51:23.970Z,30.61
2023-08-11T12:56:26.726Z,30.98
2023-08-11T13:01:28.184Z,31.19
2023-08-11T13:06:29.482Z,30.71
2023-08-11T13:11:30.894Z,31.64
2023-08-11T13:16:32.238Z,31.89
2023-08-11T13:21:33.696Z,32.14
2023-08-11T13:26:35.062Z,32.44
2023-08-11T13:31:36.504Z,31.98
2023-08-11T13:36:38.218Z,31.48
2023-08-11T13:41:40.851Z,31.44
2023-08-11T13:46:42.144Z,32.18
2023-08-11T13:51:43.397Z,32.26
2023-08-11T13:56:44.634Z,32.75
2023-08-11T14:01:46.083Z,32.55
2023-08-11T14:06:47.398Z,32.40
2023-08-11T14:11:49.852Z,32.80
2023-08-11T14:16:51.186Z,33.08
2023-08-11T14:21:52.721Z,33.08
2023-08-11T14:26:54.029Z,32.88
2023-08-11T14:31:57.486Z,33.14
2023-08-11T14:37:02.546Z,33.30
2023-08-11T14:42:03.827Z,32.88
2023-08-11T14:47:06.481Z,32.64
2023-08-11T14:52:08.332Z,32.96
2023-08-11T14:57:13.906Z,33.24
2023-08-11T15:02:15.368Z,33.20
2023-08-11T15:07:16.639Z,33.52
2023-08-11T15:12:18.760Z,33.47
2023-08-11T15:17:20.311Z,33.53
2023-08-11T15:22:21.703Z,33.95
2023-08-11T15:27:23.089Z,32.88
2023-08-11T15:32:24.413Z,32.69
2023-08-11T15:37:25.669Z,33.40
2023-08-11T15:42:27.012Z,33.92
2023-08-11T15:47:28.381Z,33.80
2023-08-11T15:52:29.741Z,34.04
2023-08-11T15:57:30.973Z,34.09
2023-08-11T16:02:32.449Z,33.89
2023-08-11T16:07:34.141Z,33.57
2023-08-11T16:12:35.469Z,32.60
2023-08-11T16:17:37.313Z,32.83
2023-08-11T16:22:38.724Z,33.40
2023-08-11T16:27:41.140Z,33.48
2023-08-11T16:32:42.517Z,33.76
2023-08-11T16:37:43.847Z,34.13
2023-08-11T16:42:45.161Z,33.65
2023-08-11T16:47:46.776Z,33.48
2023-08-11T16:52:48.166Z,33.06
2023-08-11T16:57:49.494Z,32.09
2023-08-11T17:02:50.790Z,31.75
2023-08-11T17:07:52.140Z,31.65
2023-08-11T17:12:53.529Z,31.61
2023-08-11T17:17:55.089Z,31.54
2023-08-11T17:22:56.645Z,31.13
2023-08-11T17:27:58.922Z,30.95
2023-08-11T17:33:00.235Z,30.42
2023-08-11T17:38:02.208Z,29.68
2023-08-11T17:43:03.465Z,29.36
2023-08-11T17:48:04.787Z,28.70
2023-08-11T17:53:06.017Z,28.02
2023-08-11T17:58:07.273Z,27.75
2023-08-11T18:03:08.684Z,27.36
2023-08-11T18:08:10.067Z,26.83
2023-08-11T18:13:11.276Z,26.63
2023-08-11T18:18:12.583Z,26.30
2023-08-11T18:23:13.890Z,26.12
2023-08-11T18:28:15.151Z,26.29
2023-08-11T18:33:16.475Z,26.12
2023-08-11T18:38:17.771Z,25.65
2023-08-11T18:43:19.035Z,25.37
2023-08-11T18:48:20.302Z,25.06
2023-08-11T18:53:21.656Z,25.01
2023-08-11T18:58:23.316Z,24.98
2023-08-11T19:03:24.698Z,24.83
2023-08-11T19:08:26.101Z,24.79
2023-08-11T19:13:27.331Z,24.62
2023-08-11T19:18:28.612Z,24.15
2023-08-11T19:23:29.883Z,24.16
2023-08-11T19:28:32.798Z,23.75
2023-08-11T19:33:34.280Z,24.01
2023-08-11T19:38:42.227Z,23.77
2023-08-11T19:43:43.583Z,23.67
2023-08-11T19:48:44.886Z,23.47
2023-08-11T19:53:46.149Z,23.67
2023-08-11T19:58:47.399Z,23.61
2023-08-11T20:03:48.689Z,23.46
2023-08-11T20:08:49.985Z,23.17
2023-08-11T20:13:51.209Z,23.23
2023-08-11T20:18:52.505Z,23.08
2023-08-11T20:23:53.721Z,22.51
2023-08-11T20:28:55.056Z,22.56
2023-08-11T20:33:56.358Z,22.71
2023-08-11T20:38:57.643Z,22.66
2023-08-11T20:43:58.971Z,22.26
2023-08-11T20:49:00.219Z,22.22
2023-08-11T20:54:01.420Z,22.05
2023-08-11T20:59:02.757Z,21.94
2023-08-11T21:04:04.057Z,21.85
2023-08-11T21:09:06.027Z,21.85
2023-08-11T21:14:07.297Z,21.63
2023-08-11T21:19:08.763Z,21.70
2023-08-11T21:24:10.043Z,21.67
2023-08-11T21:29:11.340Z,21.61
2023-08-11T21:34:12.608Z,21.53
2023-08-11T21:39:14.073Z,21.62
2023-08-11T21:44:16.848Z,21.43
2023-08-11T21:49:18.056Z,21.26
2023-08-11T21:54:19.258Z,21.35
2023-08-11T21:59:20.564Z,21.24
2023-08-11T22:04:21.948Z,21.13
2023-08-11T22:09:23.317Z,21.21
2023-08-11T22:14:24.556Z,20.93
2023-08-11T22:19:25.783Z,20.77
2023-08-11T22:24:39.915Z,20.94
2023-08-11T22:29:45.070Z,20.62
2023-08-11T22:34:52.712Z,20.15
2023-08-11T22:39:53.981Z,20.31
2023-08-11T22:44:55.400Z,20.54
2023-08-11T22:49:56.809Z,20.51
2023-08-11T22:54:58.099Z,20.16
2023-08-11T22:59:59.844Z,20.34
2023-08-11T23:05:01.121Z,20.06
2023-08-11T23:10:02.440Z,20.11
2023-08-11T23:15:04.368Z,20.00
2023-08-11T23:20:06.631Z,19.97
2023-08-11T23:25:08.270Z,19.93
2023-08-11T23:30:10.528Z,19.94
2023-08-11T23:35:11.779Z,19.80
2023-08-11T23:40:13.414Z,19.77
2023-08-11T23:45:14.758Z,19.63
2023-08-11T23:50:16.013Z,19.74
2023-08-11T23:55:17.425Z,19.72
